Terminal Aerodrome Forecast
Issued by NWS

Home | Current Version | Previous Version | Graphics & Text | Print | Product List | Glossary On
Versions: 1 2 3 4 5 6 7 8 9 10 11 12 13 14 15 16 17 18 19 20
452
FTUS43 KICT 150522
TAFCNU
TAF
KCNU 150522Z 1506/1606 VRB03KT P6SM OVC045
     FM151000 30006KT P6SM SCT060
     FM151900 25010KT P6SM SKC
     FM160300 20009KT P6SM FEW250=

USA.gov is the U.S. government's official web portal to all federal, state and local government web resources and services.